^^
Saratoga-Weather Station Historical Data
Daily Summary for June 26, 2021 Units:  Both    English   Metric
Daily Weekly Monthly Yearly Custom
  High: Low: Average:
Temperature: 68.4 °F /  20.2 °C 55.6 °F /  13.1 °C 61.2 °F /  16.2 °C
Dew Point: 63.7 °F /  17.6 °C 54.7 °F /  12.6 °C 59 °F /  15 °C
Humidity: 98% 78% 93%
Wind Speed: 6.9mph /  11.1km/h - 0.5mph /  0.8km/h
Wind Gust: 9mph /  14.5km/h - -
Wind- - WSW
Pressure: 30 in /  1016.6 hPa 29.9 in /  1013.9 hPa -
Precipitation: 0.06 in /  1.5 mm    
Historical Graphs
 
 
Tabular Data for June 26, 2021
Time Temperature Dew Point Pressure Wind Wind Speed Wind Gust Humidity Rainfall Rate (Hourly) solar
00:00 60.1 °F /  15.6 °C 58.6 °F /  14.8 °C 30in /  1014.2hPa Calm     95% 0in /  0.0mm 0 W/m2
00:05 60.1 °F /  15.6 °C 58.6 °F /  14.8 °C 30in /  1014.6hPa Calm     95% 0in /  0.0mm 0 W/m2
00:10 60.1 °F /  15.6 °C 58.6 °F /  14.8 °C 30in /  1014.6hPa Calm     95% 0in /  0.0mm 0 W/m2
00:15 60.1 °F /  15.6 °C 58.6 °F /  14.8 °C 30in /  1014.6hPa Calm     95% 0in /  0.0mm 0 W/m2
00:20 60.1 °F /  15.6 °C 58.6 °F /  14.8 °C 30in /  1014.6hPa Calm     95% 0in /  0.0mm 0 W/m2
00:25 60.1 °F /  15.6 °C 58.6 °F /  14.8 °C 30in /  1014.2hPa Calm     95% 0in /  0.0mm 0 W/m2
00:30 60.1 °F /  15.6 °C 58.6 °F /  14.8 °C 30in /  1014.2hPa Calm     95% 0in /  0.0mm 0 W/m2
00:35 60.1 °F /  15.6 °C 59 °F /  15 °C 30in /  1014.2hPa Calm     96% 0in /  0.0mm 0 W/m2
00:40 60.3 °F /  15.7 °C 59.2 °F /  15.1 °C 30in /  1014.2hPa Calm     96% 0in /  0.0mm 0 W/m2
00:45 60.3 °F /  15.7 °C 59.2 °F /  15.1 °C 30in /  1014.2hPa Calm   2mph /  3.2km/h 96% 0in /  0.0mm 0 W/m2
00:50 60.3 °F /  15.7 °C 59.2 °F /  15.1 °C 30in /  1014.6hPa Calm     96% 0in /  0.0mm 0 W/m2
00:55 60.1 °F /  15.6 °C 59 °F /  15 °C 30in /  1014.2hPa Calm   1mph /  1.6km/h 96% 0in /  0.0mm 0 W/m2
01:00 60.1 °F /  15.6 °C 59 °F /  15 °C 30in /  1014.6hPa Calm     96% 0in /  0.0mm 0 W/m2
01:05 60.1 °F /  15.6 °C 59 °F /  15 °C 30in /  1014.2hPa Calm     96% 0in /  0.0mm 0 W/m2
01:10 59.9 °F /  15.5 °C 58.8 °F /  14.9 °C 30in /  1014.6hPa Calm     96% 0in /  0.0mm 0 W/m2
01:15 59.7 °F /  15.4 °C 58.6 °F /  14.8 °C 30in /  1014.2hPa Calm     96% 0in /  0.0mm 0 W/m2
01:20 59.7 °F /  15.4 °C 58.6 °F /  14.8 °C 30in /  1014.6hPa Calm     96% 0in /  0.0mm 0 W/m2
01:25 59.5 °F /  15.3 °C 58.5 °F /  14.7 °C 30in /  1014.6hPa Calm     96% 0in /  0.0mm 0 W/m2
01:30 59.4 °F /  15.2 °C 57.9 °F /  14.4 °C 30in /  1014.6hPa Calm     95% 0in /  0.0mm 0 W/m2
01:35 59.4 °F /  15.2 °C 58.3 °F /  14.6 °C 30in /  1014.6hPa Calm     96% 0in /  0.0mm 0 W/m2
01:40 59.2 °F /  15.1 °C 58.1 °F /  14.5 °C 30in /  1014.6hPa Calm     96% 0in /  0.0mm 0 W/m2
01:45 59 °F /  15 °C 57.6 °F /  14.2 °C 30in /  1014.2hPa Calm     95% 0in /  0.0mm 0 W/m2
01:50 58.8 °F /  14.9 °C 57.4 °F /  14.1 °C 30in /  1014.2hPa Calm     95% 0in /  0.0mm 0 W/m2
01:55 58.6 °F /  14.8 °C 57.6 °F /  14.2 °C 30in /  1014.6hPa Calm     96% 0in /  0.0mm 0 W/m2
02:00 58.5 °F /  14.7 °C 57.4 °F /  14.1 °C 30in /  1014.6hPa Calm     96% 0in /  0.0mm 0 W/m2
02:05 58.5 °F /  14.7 °C 57.4 °F /  14.1 °C 30in /  1014.6hPa Calm     96% 0in /  0.0mm 0 W/m2
02:10 58.3 °F /  14.6 °C 57.2 °F /  14 °C 30in /  1014.6hPa Calm     96% 0in /  0.0mm 0 W/m2
02:15 58.3 °F /  14.6 °C 57.2 °F /  14 °C 30in /  1014.6hPa Calm     96% 0in /  0.0mm 0 W/m2
02:20 58.3 °F /  14.6 °C 57.2 °F /  14 °C 30in /  1014.6hPa Calm     96% 0in /  0.0mm 0 W/m2
02:25 58.5 °F /  14.7 °C 57.4 °F /  14.1 °C 30in /  1014.2hPa Calm     96% 0in /  0.0mm 0 W/m2
02:30 58.3 °F /  14.6 °C 57.2 °F /  14 °C 30in /  1014.2hPa Calm     96% 0in /  0.0mm 0 W/m2
02:35 58.5 °F /  14.7 °C 57.4 °F /  14.1 °C 30in /  1014.2hPa Calm     96% 0in /  0.0mm 0 W/m2
02:40 58.5 °F /  14.7 °C 57.4 °F /  14.1 °C 30in /  1014.2hPa Calm     96% 0in /  0.0mm 0 W/m2
02:45 58.5 °F /  14.7 °C 57.4 °F /  14.1 °C 30in /  1014.2hPa Calm     96% 0in /  0.0mm 0 W/m2
02:50 58.5 °F /  14.7 °C 57.4 °F /  14.1 °C 30in /  1014.2hPa Calm     96% 0in /  0.0mm 0 W/m2
02:55 58.3 °F /  14.6 °C 57.2 °F /  14 °C 30in /  1014.2hPa Calm     96% 0in /  0.0mm 0 W/m2
03:00 58.5 °F /  14.7 °C 57.4 °F /  14.1 °C 30in /  1014.2hPa Calm     96% 0in /  0.0mm 0 W/m2
03:05 58.5 °F /  14.7 °C 57.4 °F /  14.1 °C 30in /  1014.2hPa Calm     96% 0in /  0.0mm 0 W/m2
03:10 58.5 °F /  14.7 °C 57.4 °F /  14.1 °C 30in /  1014.6hPa Calm     96% 0in /  0.0mm 0 W/m2
03:15 58.3 °F /  14.6 °C 57.2 °F /  14 °C 30in /  1014.6hPa Calm     96% 0in /  0.0mm 0 W/m2
03:20 58.3 °F /  14.6 °C 57.2 °F /  14 °C 30in /  1014.6hPa Calm     96% 0in /  0.0mm 0 W/m2
03:25 58.1 °F /  14.5 °C 57 °F /  13.9 °C 30in /  1014.6hPa Calm     96% 0in /  0.0mm 0 W/m2
03:30 57.9 °F /  14.4 °C 56.8 °F /  13.8 °C 30in /  1014.6hPa Calm     96% 0in /  0.0mm 0 W/m2
03:35 57.9 °F /  14.4 °C 56.8 °F /  13.8 °C 30in /  1014.9hPa Calm     96% 0in /  0.0mm 0 W/m2
03:41 57.7 °F /  14.3 °C 56.7 °F /  13.7 °C 30in /  1014.6hPa Calm     96% 0in /  0.0mm 0 W/m2
03:46 57.7 °F /  14.3 °C 56.7 °F /  13.7 °C 30in /  1014.6hPa Calm     96% 0in /  0.0mm 0 W/m2
03:51 57.6 °F /  14.2 °C 56.5 °F /  13.6 °C 30in /  1014.6hPa Calm     96% 0in /  0.0mm 0 W/m2
03:56 57.6 °F /  14.2 °C 56.5 °F /  13.6 °C 30in /  1014.6hPa Calm     96% 0in /  0.0mm 0 W/m2
04:01 57.4 °F /  14.1 °C 56.3 °F /  13.5 °C 30in /  1014.6hPa Calm     96% 0in /  0.0mm 0 W/m2
04:06 57.4 °F /  14.1 °C 56.3 °F /  13.5 °C 30in /  1014.6hPa Calm     96% 0in /  0.0mm 0 W/m2
04:11 57.6 °F /  14.2 °C 56.7 °F /  13.7 °C 30in /  1014.6hPa Calm     97% 0in /  0.0mm 0 W/m2
04:16 57.7 °F /  14.3 °C 56.8 °F /  13.8 °C 30in /  1014.6hPa Calm   1mph /  1.6km/h 97% 0in /  0.0mm 0 W/m2
04:21 57.9 °F /  14.4 °C 57 °F /  13.9 °C 30in /  1014.6hPa SSE 0.9mph /  1.4km/h 1mph /  1.6km/h 97% 0in /  0.0mm 0 W/m2
04:26 58.3 °F /  14.6 °C 57.4 °F /  14.1 °C 30in /  1014.6hPa Calm     97% 0in /  0.0mm 0 W/m2
04:31 57.9 °F /  14.4 °C 57 °F /  13.9 °C 30in /  1014.6hPa Calm     97% 0in /  0.0mm 0 W/m2
04:36 57.7 °F /  14.3 °C 56.7 °F /  13.7 °C 30in /  1014.6hPa Calm     96% 0.01in /  0.2mm 0 W/m2
04:41 57.7 °F /  14.3 °C 56.7 °F /  13.7 °C 30in /  1014.6hPa Calm     96% 0.01in /  0.2mm 0 W/m2
04:46 57.6 °F /  14.2 °C 56.5 °F /  13.6 °C 30in /  1014.6hPa Calm   1mph /  1.6km/h 96% 0.01in /  0.2mm 0 W/m2
04:51 57.6 °F /  14.2 °C 56.5 °F /  13.6 °C 30in /  1014.6hPa Calm     96% 0.01in /  0.2mm 0 W/m2
04:56 57.4 °F /  14.1 °C 56.3 °F /  13.5 °C 30in /  1014.2hPa Calm     96% 0.01in /  0.2mm 0 W/m2
05:01 57.4 °F /  14.1 °C 56.3 °F /  13.5 °C 30in /  1014.6hPa Calm     96% 0.01in /  0.2mm 0 W/m2
05:06 57.2 °F /  14 °C 56.1 °F /  13.4 °C 30in /  1014.6hPa Calm     96% 0.01in /  0.2mm 0 W/m2
05:11 57.2 °F /  14 °C 56.1 °F /  13.4 °C 30in /  1014.6hPa Calm     96% 0.01in /  0.2mm 0 W/m2
05:16 57.2 °F /  14 °C 56.3 °F /  13.5 °C 30in /  1014.6hPa Calm     97% 0.01in /  0.2mm 0 W/m2
05:21 57.4 °F /  14.1 °C 56.5 °F /  13.6 °C 30in /  1014.6hPa Calm     97% 0.01in /  0.2mm 0 W/m2
05:26 57.2 °F /  14 °C 56.3 °F /  13.5 °C 30in /  1014.6hPa Calm     97% 0.01in /  0.2mm 0 W/m2
05:31 57 °F /  13.9 °C 56.1 °F /  13.4 °C 30in /  1014.6hPa Calm     97% 0.01in /  0.2mm 0 W/m2
05:36 56.8 °F /  13.8 °C 55.9 °F /  13.3 °C 30in /  1014.6hPa Calm     97% 0in /  0.0mm 0 W/m2
05:41 56.8 °F /  13.8 °C 55.9 °F /  13.3 °C 30in /  1014.2hPa Calm     97% 0in /  0.0mm 0 W/m2
05:46 56.7 °F /  13.7 °C 55.6 °F /  13.1 °C 30in /  1014.2hPa Calm     96% 0in /  0.0mm 0 W/m2
05:51 56.7 °F /  13.7 °C 55.6 °F /  13.1 °C 30in /  1014.2hPa Calm     96% 0in /  0.0mm 0 W/m2
05:56 56.7 °F /  13.7 °C 55.8 °F /  13.2 °C 30in /  1014.2hPa Calm     97% 0in /  0.0mm 0 W/m2
06:01 56.7 °F /  13.7 °C 55.8 °F /  13.2 °C 29.9in /  1013.9hPa Calm     97% 0in /  0.0mm 0 W/m2
06:06 56.5 °F /  13.6 °C 55.6 °F /  13.1 °C 30in /  1014.2hPa Calm     97% 0in /  0.0mm 0 W/m2
06:11 56.5 °F /  13.6 °C 55.6 °F /  13.1 °C 30in /  1014.2hPa Calm     97% 0in /  0.0mm 0 W/m2
06:16 56.3 °F /  13.5 °C 55.4 °F /  13 °C 30in /  1014.2hPa Calm     97% 0in /  0.0mm 0 W/m2
06:21 56.3 °F /  13.5 °C 55.4 °F /  13 °C 30in /  1014.2hPa SE 0.9mph /  1.4km/h 2mph /  3.2km/h 97% 0in /  0.0mm 0 W/m2
06:26 56.5 °F /  13.6 °C 55.6 °F /  13.1 °C 30in /  1014.6hPa Calm   2mph /  3.2km/h 97% 0in /  0.0mm 0 W/m2
06:31 56.5 °F /  13.6 °C 55.6 °F /  13.1 °C 30in /  1014.6hPa Calm     97% 0in /  0.0mm 0 W/m2
06:36 56.5 °F /  13.6 °C 55.6 °F /  13.1 °C 30in /  1014.6hPa Calm     97% 0in /  0.0mm 0 W/m2
06:41 56.3 °F /  13.5 °C 55.4 °F /  13 °C 30in /  1014.6hPa SE 0.9mph /  1.4km/h 1mph /  1.6km/h 97% 0in /  0.0mm 0 W/m2
06:46 56.1 °F /  13.4 °C 55.2 °F /  12.9 °C 30in /  1014.6hPa Calm   1mph /  1.6km/h 97% 0in /  0.0mm 0 W/m2
06:51 56.1 °F /  13.4 °C 55.2 °F /  12.9 °C 30in /  1014.6hPa Calm     97% 0in /  0.0mm 0 W/m2
06:56 56.1 °F /  13.4 °C 55.2 °F /  12.9 °C 30in /  1014.6hPa Calm     97% 0in /  0.0mm 0 W/m2
07:01 56.1 °F /  13.4 °C 55.2 °F /  12.9 °C 30in /  1014.6hPa Calm     97% 0in /  0.0mm 0 W/m2
07:06 55.9 °F /  13.3 °C 55 °F /  12.8 °C 30in /  1014.6hPa Calm     97% 0in /  0.0mm 0 W/m2
07:11 55.9 °F /  13.3 °C 55 °F /  12.8 °C 30in /  1014.9hPa Calm     97% 0in /  0.0mm 0 W/m2
07:16 55.9 °F /  13.3 °C 55 °F /  12.8 °C 30in /  1014.9hPa Calm     97% 0in /  0.0mm 0 W/m2
07:21 55.9 °F /  13.3 °C 55 °F /  12.8 °C 30in /  1014.6hPa Calm     97% 0in /  0.0mm 0 W/m2
07:26 55.8 °F /  13.2 °C 54.9 °F /  12.7 °C 30in /  1014.6hPa Calm     97% 0in /  0.0mm 0 W/m2
07:31 55.8 °F /  13.2 °C 54.9 °F /  12.7 °C 30in /  1014.6hPa Calm     97% 0in /  0.0mm 5 W/m2
07:36 55.8 °F /  13.2 °C 54.9 °F /  12.7 °C 30in /  1014.9hPa Calm     97% 0in /  0.0mm 7 W/m2
07:41 55.8 °F /  13.2 °C 54.9 °F /  12.7 °C 30in /  1014.9hPa Calm     97% 0in /  0.0mm 11 W/m2
07:46 55.6 °F /  13.1 °C 54.7 °F /  12.6 °C 30in /  1014.9hPa Calm     97% 0in /  0.0mm 14 W/m2
07:51 55.6 °F /  13.1 °C 54.7 °F /  12.6 °C 30in /  1014.9hPa Calm     97% 0in /  0.0mm 23 W/m2
07:56 55.8 °F /  13.2 °C 54.9 °F /  12.7 °C 30in /  1014.9hPa SE 0.9mph /  1.4km/h 2mph /  3.2km/h 97% 0in /  0.0mm 26 W/m2
08:01 55.9 °F /  13.3 °C 55 °F /  12.8 °C 30in /  1014.9hPa Calm     97% 0in /  0.0mm 32 W/m2
08:06 56.1 °F /  13.4 °C 55.2 °F /  12.9 °C 30in /  1014.9hPa Calm     97% 0in /  0.0mm 44 W/m2
08:11 56.1 °F /  13.4 °C 55.2 °F /  12.9 °C 30in /  1014.9hPa Calm     97% 0in /  0.0mm 40 W/m2
08:16 56.5 °F /  13.6 °C 55.6 °F /  13.1 °C 30in /  1014.9hPa Calm     97% 0in /  0.0mm 40 W/m2
08:21 56.7 °F /  13.7 °C 55.8 °F /  13.2 °C 30in /  1014.9hPa Calm     97% 0in /  0.0mm 44 W/m2
08:26 56.7 °F /  13.7 °C 55.8 °F /  13.2 °C 30in /  1014.9hPa Calm     97% 0in /  0.0mm 47 W/m2
08:31 56.8 °F /  13.8 °C 55.9 °F /  13.3 °C 30in /  1015.2hPa ESE 2mph /  3.2km/h 4mph /  6.4km/h 97% 0in /  0.0mm 49 W/m2
08:36 57 °F /  13.9 °C 56.1 °F /  13.4 °C 30in /  1015.2hPa ESE 2mph /  3.2km/h 4mph /  6.4km/h 97% 0in /  0.0mm 47 W/m2
08:41 57 °F /  13.9 °C 56.1 °F /  13.4 °C 30in /  1015.2hPa ESE 2mph /  3.2km/h 4mph /  6.4km/h 97% 0in /  0.0mm 42 W/m2
08:46 57.2 °F /  14 °C 56.3 °F /  13.5 °C 30in /  1015.2hPa Calm     97% 0in /  0.0mm 44 W/m2
08:51 57.4 °F /  14.1 °C 56.5 °F /  13.6 °C 30in /  1015.2hPa Calm   4mph /  6.4km/h 97% 0in /  0.0mm 46 W/m2
08:57 57.6 °F /  14.2 °C 56.7 °F /  13.7 °C 30in /  1015.2hPa East 2mph /  3.2km/h 3mph /  4.8km/h 97% 0in /  0.0mm 49 W/m2
09:02 57.6 °F /  14.2 °C 56.7 °F /  13.7 °C 30in /  1015.2hPa Calm   2mph /  3.2km/h 97% 0in /  0.0mm 51 W/m2
09:07 57.6 °F /  14.2 °C 56.7 °F /  13.7 °C 30in /  1015.2hPa Calm     97% 0in /  0.0mm 49 W/m2
09:12 57.6 °F /  14.2 °C 56.7 °F /  13.7 °C 30in /  1015.2hPa Calm   2mph /  3.2km/h 97% 0in /  0.0mm 44 W/m2
09:17 57.6 °F /  14.2 °C 56.7 °F /  13.7 °C 30in /  1015.2hPa Calm     97% 0in /  0.0mm 44 W/m2
09:22 57.6 °F /  14.2 °C 56.7 °F /  13.7 °C 30in /  1015.2hPa East 0.9mph /  1.4km/h 2mph /  3.2km/h 97% 0in /  0.0mm 37 W/m2
09:27 57.6 °F /  14.2 °C 56.7 °F /  13.7 °C 30in /  1015.2hPa North 0.9mph /  1.4km/h 2mph /  3.2km/h 97% 0in /  0.0mm 40 W/m2
09:32 57.7 °F /  14.3 °C 56.8 °F /  13.8 °C 30in /  1015.2hPa Calm   1mph /  1.6km/h 97% 0.01in /  0.2mm 47 W/m2
09:37 57.9 °F /  14.4 °C 57 °F /  13.9 °C 30in /  1015.2hPa WNW 0.9mph /  1.4km/h 3mph /  4.8km/h 97% 0.02in /  0.5mm 49 W/m2
09:42 57.9 °F /  14.4 °C 57 °F /  13.9 °C 30in /  1015.2hPa Calm   3mph /  4.8km/h 97% 0.02in /  0.5mm 47 W/m2
09:47 57.9 °F /  14.4 °C 57 °F /  13.9 °C 30in /  1015.2hPa Calm   1mph /  1.6km/h 97% 0.02in /  0.5mm 51 W/m2
09:52 58.3 °F /  14.6 °C 57.4 °F /  14.1 °C 30in /  1015.2hPa WNW 0.9mph /  1.4km/h 3mph /  4.8km/h 97% 0.02in /  0.5mm 60 W/m2
09:57 58.5 °F /  14.7 °C 57.6 °F /  14.2 °C 30in /  1015.2hPa Calm     97% 0.02in /  0.5mm 56 W/m2
10:02 58.6 °F /  14.8 °C 57.7 °F /  14.3 °C 30in /  1015.2hPa Calm   2mph /  3.2km/h 97% 0.02in /  0.5mm 60 W/m2
10:07 58.6 °F /  14.8 °C 57.7 °F /  14.3 °C 30in /  1015.6hPa Calm     97% 0.02in /  0.5mm 79 W/m2
10:12 58.8 °F /  14.9 °C 58.3 °F /  14.6 °C 30in /  1015.6hPa Calm     98% 0.02in /  0.5mm 79 W/m2
10:17 59.2 °F /  15.1 °C 58.6 °F /  14.8 °C 30in /  1015.6hPa Calm   1mph /  1.6km/h 98% 0.02in /  0.5mm 65 W/m2
10:22 59.4 °F /  15.2 °C 58.5 °F /  14.7 °C 30in /  1015.9hPa East 2mph /  3.2km/h 3mph /  4.8km/h 97% 0.02in /  0.5mm 51 W/m2
10:27 59.4 °F /  15.2 °C 58.5 °F /  14.7 °C 30in /  1015.9hPa East 0.9mph /  1.4km/h 4mph /  6.4km/h 97% 0.02in /  0.5mm 42 W/m2
10:32 59.4 °F /  15.2 °C 58.5 °F /  14.7 °C 30in /  1015.9hPa East 0.9mph /  1.4km/h 2mph /  3.2km/h 97% 0.02in /  0.5mm 40 W/m2
10:37 59.4 °F /  15.2 °C 58.5 °F /  14.7 °C 30in /  1015.9hPa East 0.9mph /  1.4km/h 4mph /  6.4km/h 97% 0.01in /  0.2mm 40 W/m2
10:42 59.4 °F /  15.2 °C 58.5 °F /  14.7 °C 30in /  1015.9hPa Calm   2mph /  3.2km/h 97% 0.01in /  0.2mm 42 W/m2
10:47 59.4 °F /  15.2 °C 58.5 °F /  14.7 °C 30in /  1015.9hPa ESE 2mph /  3.2km/h 3mph /  4.8km/h 97% 0in /  0.0mm 54 W/m2
10:52 59.4 °F /  15.2 °C 58.5 °F /  14.7 °C 30in /  1016.3hPa Calm   2mph /  3.2km/h 97% 0in /  0.0mm 54 W/m2
10:57 59.4 °F /  15.2 °C 58.5 °F /  14.7 °C 30in /  1016.3hPa Calm   2mph /  3.2km/h 97% 0in /  0.0mm 49 W/m2
11:02 59.4 °F /  15.2 °C 58.5 °F /  14.7 °C 30in /  1016.3hPa Calm   2mph /  3.2km/h 97% 0in /  0.0mm 76 W/m2
11:07 59.5 °F /  15.3 °C 59 °F /  15 °C 30in /  1016.3hPa ESE 0.9mph /  1.4km/h 2mph /  3.2km/h 98% 0in /  0.0mm 83 W/m2
11:12 59.9 °F /  15.5 °C 59 °F /  15 °C 30in /  1016.3hPa Calm     97% 0in /  0.0mm 65 W/m2
11:17 60.3 °F /  15.7 °C 59.4 °F /  15.2 °C 30in /  1016.3hPa Calm   2mph /  3.2km/h 97% 0in /  0.0mm 47 W/m2
11:22 60.4 °F /  15.8 °C 59.9 °F /  15.5 °C 30in /  1016.3hPa Calm   1mph /  1.6km/h 98% 0in /  0.0mm 39 W/m2
11:27 60.4 °F /  15.8 °C 59.9 °F /  15.5 °C 30in /  1016.3hPa East 2mph /  3.2km/h 2mph /  3.2km/h 98% 0in /  0.0mm 46 W/m2
11:32 60.3 °F /  15.7 °C 59.7 °F /  15.4 °C 30in /  1016.3hPa Calm   2mph /  3.2km/h 98% 0in /  0.0mm 37 W/m2
11:37 60.3 °F /  15.7 °C 59.7 °F /  15.4 °C 30in /  1016.3hPa Calm   1mph /  1.6km/h 98% 0in /  0.0mm 33 W/m2
11:42 60.3 °F /  15.7 °C 59.7 °F /  15.4 °C 30in /  1016.6hPa Calm     98% 0in /  0.0mm 46 W/m2
11:47 60.3 °F /  15.7 °C 59.4 °F /  15.2 °C 30in /  1016.6hPa Calm     97% 0.01in /  0.2mm 93 W/m2
11:52 60.4 °F /  15.8 °C 59.5 °F /  15.3 °C 30in /  1016.6hPa Calm     97% 0.01in /  0.2mm 76 W/m2
11:57 60.8 °F /  16 °C 59.9 °F /  15.5 °C 30in /  1016.6hPa Calm     97% 0.02in /  0.5mm 63 W/m2
12:02 61 °F /  16.1 °C 60.4 °F /  15.8 °C 30in /  1016.6hPa East 0.9mph /  1.4km/h 2mph /  3.2km/h 98% 0.02in /  0.5mm 114 W/m2
12:07 61.2 °F /  16.2 °C 60.6 °F /  15.9 °C 30in /  1016.6hPa Calm   1mph /  1.6km/h 98% 0.02in /  0.5mm 105 W/m2
12:12 61.3 °F /  16.3 °C 60.8 °F /  16 °C 30in /  1016.3hPa East 0.9mph /  1.4km/h 2mph /  3.2km/h 98% 0.03in /  0.8mm 118 W/m2
12:17 61.5 °F /  16.4 °C 61 °F /  16.1 °C 30in /  1016.3hPa Calm     98% 0.03in /  0.8mm 107 W/m2
12:22 61.5 °F /  16.4 °C 61 °F /  16.1 °C 30in /  1016.3hPa Calm     98% 0.03in /  0.8mm 169 W/m2
12:27 61.9 °F /  16.6 °C 61.3 °F /  16.3 °C 30in /  1016.3hPa Calm     98% 0.03in /  0.8mm 234 W/m2
12:32 62.1 °F /  16.7 °C 61.5 °F /  16.4 °C 30in /  1016.3hPa NW 2mph /  3.2km/h 3mph /  4.8km/h 98% 0.03in /  0.8mm 185 W/m2
12:37 62.1 °F /  16.7 °C 61.5 °F /  16.4 °C 30in /  1016.3hPa WSW 2.9mph /  4.7km/h 3mph /  4.8km/h 98% 0.03in /  0.8mm 207 W/m2
12:42 62.1 °F /  16.7 °C 61.5 °F /  16.4 °C 30in /  1016.3hPa Calm   1mph /  1.6km/h 98% 0.03in /  0.8mm 218 W/m2
12:47 62.2 °F /  16.8 °C 61.7 °F /  16.5 °C 30in /  1016.3hPa Calm     98% 0.02in /  0.5mm 223 W/m2
12:52 62.4 °F /  16.9 °C 61.9 °F /  16.6 °C 30in /  1016.3hPa Calm     98% 0.02in /  0.5mm 248 W/m2
12:57 62.6 °F /  17 °C 62.1 °F /  16.7 °C 30in /  1016.3hPa NW 0.9mph /  1.4km/h 4mph /  6.4km/h 98% 0.02in /  0.5mm 285 W/m2
13:02 62.8 °F /  17.1 °C 62.2 °F /  16.8 °C 30in /  1016.3hPa Calm   2mph /  3.2km/h 98% 0.01in /  0.2mm 265 W/m2
13:07 63 °F /  17.2 °C 62.4 °F /  16.9 °C 30in /  1015.9hPa WNW 2.9mph /  4.7km/h 4mph /  6.4km/h 98% 0.01in /  0.2mm 290 W/m2
13:12 63.3 °F /  17.4 °C 62.8 °F /  17.1 °C 30in /  1016.3hPa West 2mph /  3.2km/h 7mph /  11.3km/h 98% 0in /  0.0mm 309 W/m2
13:17 63.9 °F /  17.7 °C 63 °F /  17.2 °C 30in /  1016.3hPa WNW 2mph /  3.2km/h 4mph /  6.4km/h 97% 0in /  0.0mm 250 W/m2
13:22 64.4 °F /  18 °C 63.5 °F /  17.5 °C 30in /  1016.3hPa NNW 0.9mph /  1.4km/h 3mph /  4.8km/h 97% 0in /  0.0mm 278 W/m2
13:27 64.8 °F /  18.2 °C 63.7 °F /  17.6 °C 30in /  1016.3hPa North 0.9mph /  1.4km/h 3mph /  4.8km/h 96% 0in /  0.0mm 227 W/m2
13:32 65.3 °F /  18.5 °C 63.5 °F /  17.5 °C 30in /  1016.3hPa Calm   2mph /  3.2km/h 94% 0in /  0.0mm 334 W/m2
13:37 65.7 °F /  18.7 °C 63.5 °F /  17.5 °C 30in /  1016.3hPa West 6.9mph /  11.1km/h 7mph /  11.3km/h 93% 0in /  0.0mm 313 W/m2
13:42 66 °F /  18.9 °C 63.7 °F /  17.6 °C 30in /  1016.3hPa West 0.9mph /  1.4km/h 3mph /  4.8km/h 92% 0in /  0.0mm 294 W/m2
13:47 66.4 °F /  19.1 °C 63.7 °F /  17.6 °C 30in /  1015.9hPa NW 0.9mph /  1.4km/h 3mph /  4.8km/h 91% 0in /  0.0mm 341 W/m2
13:52 66.6 °F /  19.2 °C 63.1 °F /  17.3 °C 30in /  1015.9hPa Calm   2mph /  3.2km/h 89% 0in /  0.0mm 278 W/m2
13:57 66.7 °F /  19.3 °C 63.1 °F /  17.3 °C 30in /  1015.9hPa Calm   4mph /  6.4km/h 88% 0in /  0.0mm 320 W/m2
14:02 66.9 °F /  19.4 °C 63 °F /  17.2 °C 30in /  1015.9hPa Calm   3mph /  4.8km/h 87% 0in /  0.0mm 408 W/m2
14:07 67.1 °F /  19.5 °C 63.1 °F /  17.3 °C 30in /  1015.9hPa Calm     87% 0in /  0.0mm 186 W/m2
14:12 67.3 °F /  19.6 °C 63 °F /  17.2 °C 30in /  1015.9hPa West 2mph /  3.2km/h 3mph /  4.8km/h 86% 0in /  0.0mm 132 W/m2
14:17 67.3 °F /  19.6 °C 63 °F /  17.2 °C 30in /  1015.6hPa SW 2mph /  3.2km/h 3mph /  4.8km/h 86% 0in /  0.0mm 197 W/m2
14:22 67.3 °F /  19.6 °C 63 °F /  17.2 °C 30in /  1015.9hPa Calm   2mph /  3.2km/h 86% 0in /  0.0mm 113 W/m2
14:27 67.1 °F /  19.5 °C 63.1 °F /  17.3 °C 30in /  1015.9hPa WNW 0.9mph /  1.4km/h 2mph /  3.2km/h 87% 0in /  0.0mm 76 W/m2
14:32 67.1 °F /  19.5 °C 63.1 °F /  17.3 °C 30in /  1015.9hPa NW 2.9mph /  4.7km/h 3mph /  4.8km/h 87% 0in /  0.0mm 267 W/m2
14:37 67.1 °F /  19.5 °C 63.1 °F /  17.3 °C 30in /  1015.9hPa WSW 2.9mph /  4.7km/h 4mph /  6.4km/h 87% 0in /  0.0mm 185 W/m2
14:42 67.1 °F /  19.5 °C 63.1 °F /  17.3 °C 30in /  1015.9hPa West 4mph /  6.4km/h 6mph /  9.7km/h 87% 0in /  0.0mm 246 W/m2
14:47 66.9 °F /  19.4 °C 62.6 °F /  17 °C 30in /  1015.9hPa WNW 0.9mph /  1.4km/h 4mph /  6.4km/h 86% 0in /  0.0mm 200 W/m2
14:52 66.7 °F /  19.3 °C 62.4 °F /  16.9 °C 30in /  1015.9hPa WNW 4mph /  6.4km/h 4mph /  6.4km/h 86% 0in /  0.0mm 209 W/m2
14:57 66.7 °F /  19.3 °C 62.4 °F /  16.9 °C 30in /  1015.9hPa NNW 2.9mph /  4.7km/h 3mph /  4.8km/h 86% 0in /  0.0mm 155 W/m2
15:02 66.6 °F /  19.2 °C 61.9 °F /  16.6 °C 30in /  1015.9hPa Calm   7mph /  11.3km/h 85% 0in /  0.0mm 186 W/m2
15:07 66.4 °F /  19.1 °C 61.7 °F /  16.5 °C 30in /  1015.9hPa NW 2.9mph /  4.7km/h 8mph /  12.9km/h 85% 0in /  0.0mm 178 W/m2
15:12 66.4 °F /  19.1 °C 61.7 °F /  16.5 °C 30in /  1015.9hPa WNW 2mph /  3.2km/h 7mph /  11.3km/h 85% 0in /  0.0mm 334 W/m2
15:17 66.4 °F /  19.1 °C 61.7 °F /  16.5 °C 30in /  1015.9hPa WNW 2.9mph /  4.7km/h 8mph /  12.9km/h 85% 0in /  0.0mm 234 W/m2
15:22 66.6 °F /  19.2 °C 61.5 °F /  16.4 °C 30in /  1016.3hPa NNE 0.9mph /  1.4km/h 2mph /  3.2km/h 84% 0in /  0.0mm 285 W/m2
15:27 66.6 °F /  19.2 °C 61.5 °F /  16.4 °C 30in /  1016.3hPa NW 4mph /  6.4km/h 9mph /  14.5km/h 84% 0in /  0.0mm 230 W/m2
15:32 66.6 °F /  19.2 °C 61.5 °F /  16.4 °C 30in /  1016.3hPa NNW 2mph /  3.2km/h 2mph /  3.2km/h 84% 0in /  0.0mm 262 W/m2
15:37 66.7 °F /  19.3 °C 61.7 °F /  16.5 °C 30in /  1016.3hPa NW 4mph /  6.4km/h 9mph /  14.5km/h 84% 0in /  0.0mm 139 W/m2
15:42 66.6 °F /  19.2 °C 61.5 °F /  16.4 °C 30in /  1016.3hPa WNW 2.9mph /  4.7km/h 5mph /  8km/h 84% 0in /  0.0mm 93 W/m2
15:47 66.6 °F /  19.2 °C 61.5 °F /  16.4 °C 30in /  1016.3hPa NW 2.9mph /  4.7km/h 5mph /  8km/h 84% 0in /  0.0mm 93 W/m2
15:52 66.4 °F /  19.1 °C 61.3 °F /  16.3 °C 30in /  1016.3hPa NW 0.9mph /  1.4km/h 7mph /  11.3km/h 84% 0in /  0.0mm 93 W/m2
15:57 66.4 °F /  19.1 °C 61.3 °F /  16.3 °C 30in /  1016.3hPa Calm   1mph /  1.6km/h 84% 0in /  0.0mm 135 W/m2
16:02 66.4 °F /  19.1 °C 62.1 °F /  16.7 °C 30in /  1016.3hPa WSW 0.9mph /  1.4km/h 7mph /  11.3km/h 86% 0in /  0.0mm 163 W/m2
16:07 66.4 °F /  19.1 °C 61.7 °F /  16.5 °C 30in /  1016.3hPa WNW 0.9mph /  1.4km/h 3mph /  4.8km/h 85% 0in /  0.0mm 285 W/m2
16:12 66.6 °F /  19.2 °C 61.5 °F /  16.4 °C 30in /  1016.3hPa Calm   4mph /  6.4km/h 84% 0in /  0.0mm 204 W/m2
16:17 66.7 °F /  19.3 °C 61.7 °F /  16.5 °C 30in /  1015.9hPa Calm   4mph /  6.4km/h 84% 0in /  0.0mm 209 W/m2
16:22 66.9 °F /  19.4 °C 61.5 °F /  16.4 °C 30in /  1015.9hPa Calm   3mph /  4.8km/h 83% 0in /  0.0mm 169 W/m2
16:27 67.1 °F /  19.5 °C 62.1 °F /  16.7 °C 30in /  1015.9hPa WSW 2.9mph /  4.7km/h 3mph /  4.8km/h 84% 0in /  0.0mm 213 W/m2
16:32 67.1 °F /  19.5 °C 61.7 °F /  16.5 °C 30in /  1015.9hPa Calm   3mph /  4.8km/h 83% 0in /  0.0mm 255 W/m2
16:37 67.5 °F /  19.7 °C 62.1 °F /  16.7 °C 30in /  1015.9hPa WNW 2.9mph /  4.7km/h 7mph /  11.3km/h 83% 0in /  0.0mm 258 W/m2
16:43 67.5 °F /  19.7 °C 61.7 °F /  16.5 °C 30in /  1015.9hPa WNW 0.9mph /  1.4km/h 7mph /  11.3km/h 82% 0in /  0.0mm 195 W/m2
16:48 67.5 °F /  19.7 °C 61.7 °F /  16.5 °C 30in /  1015.6hPa West 4mph /  6.4km/h 6mph /  9.7km/h 82% 0in /  0.0mm 183 W/m2
16:53 67.3 °F /  19.6 °C 61.5 °F /  16.4 °C 30in /  1015.6hPa WNW 4mph /  6.4km/h 4mph /  6.4km/h 82% 0in /  0.0mm 151 W/m2
16:58 67.3 °F /  19.6 °C 61.5 °F /  16.4 °C 30in /  1015.6hPa West 0.9mph /  1.4km/h 3mph /  4.8km/h 82% 0in /  0.0mm 207 W/m2
17:03 67.3 °F /  19.6 °C 61.5 °F /  16.4 °C 30in /  1015.6hPa NW 0.9mph /  1.4km/h 3mph /  4.8km/h 82% 0in /  0.0mm 243 W/m2
17:08 67.6 °F /  19.8 °C 61.9 °F /  16.6 °C 30in /  1015.6hPa West 4mph /  6.4km/h 4mph /  6.4km/h 82% 0in /  0.0mm 223 W/m2
17:13 67.8 °F /  19.9 °C 61.7 °F /  16.5 °C 30in /  1015.6hPa WSW 0.9mph /  1.4km/h 4mph /  6.4km/h 81% 0in /  0.0mm 408 W/m2
17:18 68 °F /  20 °C 61.5 °F /  16.4 °C 30in /  1015.6hPa WNW 0.9mph /  1.4km/h 6mph /  9.7km/h 80% 0in /  0.0mm 179 W/m2
17:23 68.2 °F /  20.1 °C 61.3 °F /  16.3 °C 30in /  1015.6hPa West 2mph /  3.2km/h 3mph /  4.8km/h 79% 0in /  0.0mm 246 W/m2
17:28 68.2 °F /  20.1 °C 61 °F /  16.1 °C 30in /  1015.6hPa NNW 2mph /  3.2km/h 6mph /  9.7km/h 78% 0in /  0.0mm 216 W/m2
17:33 68.4 °F /  20.2 °C 61.9 °F /  16.6 °C 30in /  1015.6hPa West 0.9mph /  1.4km/h 3mph /  4.8km/h 80% 0in /  0.0mm 183 W/m2
17:38 68.2 °F /  20.1 °C 61.7 °F /  16.5 °C 30in /  1015.6hPa Calm   1mph /  1.6km/h 80% 0in /  0.0mm 135 W/m2
17:43 68.4 °F /  20.2 °C 62.6 °F /  17 °C 30in /  1015.6hPa Calm   1mph /  1.6km/h 82% 0in /  0.0mm 109 W/m2
17:48 68.2 °F /  20.1 °C 62.4 °F /  16.9 °C 30in /  1015.9hPa Calm     82% 0in /  0.0mm 104 W/m2
17:53 68.2 °F /  20.1 °C 62.8 °F /  17.1 °C 30in /  1015.6hPa Calm     83% 0in /  0.0mm 88 W/m2
17:58 67.8 °F /  19.9 °C 62.4 °F /  16.9 °C 30in /  1015.6hPa Calm     83% 0in /  0.0mm 63 W/m2
18:03 67.6 °F /  19.8 °C 62.6 °F /  17 °C 30in /  1015.6hPa Calm     84% 0in /  0.0mm 51 W/m2
18:08 67.5 °F /  19.7 °C 62.8 °F /  17.1 °C 30in /  1015.6hPa Calm     85% 0in /  0.0mm 49 W/m2
18:13 66.9 °F /  19.4 °C 62.6 °F /  17 °C 30in /  1015.6hPa Calm     86% 0in /  0.0mm 51 W/m2
18:18 66.6 °F /  19.2 °C 62.2 °F /  16.8 °C 30in /  1015.6hPa Calm     86% 0in /  0.0mm 51 W/m2
18:23 66.4 °F /  19.1 °C 62.4 °F /  16.9 °C 30in /  1015.6hPa Calm     87% 0in /  0.0mm 49 W/m2
18:28 66 °F /  18.9 °C 62.1 °F /  16.7 °C 30in /  1015.6hPa Calm   1mph /  1.6km/h 87% 0in /  0.0mm 46 W/m2
18:33 65.8 °F /  18.8 °C 61.9 °F /  16.6 °C 30in /  1015.6hPa Calm     87% 0in /  0.0mm 47 W/m2
18:38 65.5 °F /  18.6 °C 61.9 °F /  16.6 °C 30in /  1015.9hPa Calm     88% 0in /  0.0mm 46 W/m2
18:43 65.1 °F /  18.4 °C 61.5 °F /  16.4 °C 30in /  1015.6hPa Calm     88% 0in /  0.0mm 46 W/m2
18:48 64.9 °F /  18.3 °C 61.7 °F /  16.5 °C 30in /  1015.9hPa Calm     89% 0in /  0.0mm 49 W/m2
18:53 64.9 °F /  18.3 °C 61.7 °F /  16.5 °C 30in /  1015.9hPa Calm     89% 0in /  0.0mm 51 W/m2
18:58 64.8 °F /  18.2 °C 61.5 °F /  16.4 °C 30in /  1016.3hPa Calm     89% 0in /  0.0mm 33 W/m2
19:03 64.8 °F /  18.2 °C 61.7 °F /  16.5 °C 30in /  1016.3hPa Calm     90% 0in /  0.0mm 25 W/m2
19:08 64.6 °F /  18.1 °C 61.5 °F /  16.4 °C 30in /  1015.9hPa Calm     90% 0in /  0.0mm 19 W/m2
19:13 64.6 °F /  18.1 °C 61.5 °F /  16.4 °C 30in /  1016.3hPa Calm     90% 0in /  0.0mm 14 W/m2
19:18 64.2 °F /  17.9 °C 61.2 °F /  16.2 °C 30in /  1016.3hPa Calm     90% 0in /  0.0mm 9 W/m2
19:23 64.2 °F /  17.9 °C 61.2 °F /  16.2 °C 30in /  1016.3hPa Calm     90% 0in /  0.0mm 0 W/m2
19:28 64 °F /  17.8 °C 61 °F /  16.1 °C 30in /  1016.3hPa Calm     90% 0in /  0.0mm 0 W/m2
19:33 63.9 °F /  17.7 °C 60.8 °F /  16 °C 30in /  1016.3hPa Calm     90% 0in /  0.0mm 0 W/m2
19:38 63.9 °F /  17.7 °C 60.8 °F /  16 °C 30in /  1016.3hPa Calm     90% 0in /  0.0mm 0 W/m2
19:43 63.7 °F /  17.6 °C 60.6 °F /  15.9 °C 30in /  1016.3hPa Calm     90% 0in /  0.0mm 0 W/m2
19:48 63.3 °F /  17.4 °C 60.6 °F /  15.9 °C 30in /  1016.3hPa Calm     91% 0in /  0.0mm 0 W/m2
19:53 63.1 °F /  17.3 °C 60.1 °F /  15.6 °C 30in /  1016.3hPa Calm     90% 0in /  0.0mm 0 W/m2
19:58 62.8 °F /  17.1 °C 60.1 °F /  15.6 °C 30in /  1016.3hPa Calm     91% 0in /  0.0mm 0 W/m2
20:03 62.6 °F /  17 °C 59.9 °F /  15.5 °C 30in /  1016.3hPa Calm     91% 0in /  0.0mm 0 W/m2
20:08 62.2 °F /  16.8 °C 59.5 °F /  15.3 °C 30in /  1016.3hPa Calm     91% 0in /  0.0mm 0 W/m2
20:13 62.1 °F /  16.7 °C 59.4 °F /  15.2 °C 30in /  1016.3hPa Calm     91% 0in /  0.0mm 0 W/m2
20:18 61.7 °F /  16.5 °C 59 °F /  15 °C 30in /  1016.3hPa Calm     91% 0in /  0.0mm 0 W/m2
20:23 61.5 °F /  16.4 °C 58.8 °F /  14.9 °C 30in /  1016.3hPa Calm     91% 0in /  0.0mm 0 W/m2
20:28 61.2 °F /  16.2 °C 58.8 °F /  14.9 °C 30in /  1016.3hPa Calm     92% 0in /  0.0mm 0 W/m2
20:33 61 °F /  16.1 °C 58.6 °F /  14.8 °C 30in /  1016.3hPa Calm     92% 0in /  0.0mm 0 W/m2
20:38 60.6 °F /  15.9 °C 58.3 °F /  14.6 °C 30in /  1016.6hPa Calm     92% 0in /  0.0mm 0 W/m2
20:43 60.4 °F /  15.8 °C 58.5 °F /  14.7 °C 30in /  1016.6hPa Calm     93% 0in /  0.0mm 0 W/m2
20:48 60.3 °F /  15.7 °C 58.3 °F /  14.6 °C 30in /  1016.6hPa Calm     93% 0in /  0.0mm 0 W/m2
20:53 60.3 °F /  15.7 °C 58.3 °F /  14.6 °C 30in /  1016.6hPa Calm   1mph /  1.6km/h 93% 0in /  0.0mm 0 W/m2
20:58 60.3 °F /  15.7 °C 58.5 °F /  14.7 °C 30in /  1016.6hPa NE 0.9mph /  1.4km/h 2mph /  3.2km/h 94% 0in /  0.0mm 0 W/m2
21:03 60.3 °F /  15.7 °C 58.5 °F /  14.7 °C 30in /  1016.6hPa WSW 2mph /  3.2km/h 2mph /  3.2km/h 94% 0in /  0.0mm 0 W/m2
21:08 60.3 °F /  15.7 °C 58.5 °F /  14.7 °C 30in /  1016.6hPa Calm   1mph /  1.6km/h 94% 0in /  0.0mm 0 W/m2
21:13 60.4 °F /  15.8 °C 58.6 °F /  14.8 °C 30in /  1016.6hPa Calm   1mph /  1.6km/h 94% 0in /  0.0mm 0 W/m2
21:18 60.4 °F /  15.8 °C 58.6 °F /  14.8 °C 30in /  1016.6hPa Calm     94% 0in /  0.0mm 0 W/m2
21:23 60.4 °F /  15.8 °C 58.6 °F /  14.8 °C 30in /  1016.6hPa WSW 0.9mph /  1.4km/h 2mph /  3.2km/h 94% 0in /  0.0mm 0 W/m2
21:28 60.4 °F /  15.8 °C 58.6 °F /  14.8 °C 30in /  1016.6hPa Calm   1mph /  1.6km/h 94% 0in /  0.0mm 0 W/m2
21:33 60.6 °F /  15.9 °C 58.8 °F /  14.9 °C 30in /  1016.6hPa NNW 0.9mph /  1.4km/h 1mph /  1.6km/h 94% 0in /  0.0mm 0 W/m2
21:38 61 °F /  16.1 °C 59.2 °F /  15.1 °C 30in /  1016.6hPa Calm   4mph /  6.4km/h 94% 0in /  0.0mm 0 W/m2
21:43 61 °F /  16.1 °C 59 °F /  15 °C 30in /  1016.6hPa Calm   2mph /  3.2km/h 93% 0in /  0.0mm 0 W/m2
21:48 61.3 °F /  16.3 °C 59.5 °F /  15.3 °C 30in /  1016.6hPa NW 0.9mph /  1.4km/h 4mph /  6.4km/h 94% 0in /  0.0mm 0 W/m2
21:53 61.5 °F /  16.4 °C 59.5 °F /  15.3 °C 30in /  1016.6hPa Calm     93% 0in /  0.0mm 0 W/m2
21:58 61.5 °F /  16.4 °C 59.2 °F /  15.1 °C 30in /  1016.6hPa Calm   2mph /  3.2km/h 92% 0in /  0.0mm 0 W/m2
22:03 61.3 °F /  16.3 °C 59 °F /  15 °C 30in /  1016.6hPa Calm     92% 0in /  0.0mm 0 W/m2
22:08 61.2 °F /  16.2 °C 59.2 °F /  15.1 °C 30in /  1016.6hPa Calm   1mph /  1.6km/h 93% 0in /  0.0mm 0 W/m2
22:13 61.2 °F /  16.2 °C 59.2 °F /  15.1 °C 30in /  1016.6hPa Calm   4mph /  6.4km/h 93% 0in /  0.0mm 0 W/m2
22:18 61.2 °F /  16.2 °C 59.2 °F /  15.1 °C 30in /  1016.6hPa WNW 0.9mph /  1.4km/h 4mph /  6.4km/h 93% 0in /  0.0mm 0 W/m2
22:23 61.3 °F /  16.3 °C 59 °F /  15 °C 30in /  1016.6hPa WNW 0.9mph /  1.4km/h 2mph /  3.2km/h 92% 0in /  0.0mm 0 W/m2
22:28 61.2 °F /  16.2 °C 58.8 °F /  14.9 °C 30in /  1016.6hPa Calm   1mph /  1.6km/h 92% 0in /  0.0mm 0 W/m2
22:33 61.2 °F /  16.2 °C 58.8 °F /  14.9 °C 30in /  1016.6hPa Calm     92% 0in /  0.0mm 0 W/m2
22:38 61.2 °F /  16.2 °C 58.8 °F /  14.9 °C 30in /  1016.6hPa Calm   3mph /  4.8km/h 92% 0in /  0.0mm 0 W/m2
22:43 61.2 °F /  16.2 °C 58.8 °F /  14.9 °C 30in /  1016.6hPa Calm   2mph /  3.2km/h 92% 0in /  0.0mm 0 W/m2
22:48 61 °F /  16.1 °C 58.6 °F /  14.8 °C 30in /  1016.6hPa Calm   3mph /  4.8km/h 92% 0in /  0.0mm 0 W/m2
22:53 61 °F /  16.1 °C 58.6 °F /  14.8 °C 30in /  1016.6hPa Calm   3mph /  4.8km/h 92% 0in /  0.0mm 0 W/m2
22:58 61 °F /  16.1 °C 58.6 °F /  14.8 °C 30in /  1016.6hPa Calm   1mph /  1.6km/h 92% 0in /  0.0mm 0 W/m2
23:03 61 °F /  16.1 °C 58.6 °F /  14.8 °C 30in /  1016.6hPa NNE 2.9mph /  4.7km/h 3mph /  4.8km/h 92% 0in /  0.0mm 0 W/m2
23:08 61 °F /  16.1 °C 58.6 °F /  14.8 °C 30in /  1016.6hPa WSW 2mph /  3.2km/h 3mph /  4.8km/h 92% 0in /  0.0mm 0 W/m2
23:13 61.2 °F /  16.2 °C 58.5 °F /  14.7 °C 30in /  1016.6hPa Calm   2mph /  3.2km/h 91% 0in /  0.0mm 0 W/m2
23:18 61.2 °F /  16.2 °C 58.5 °F /  14.7 °C 30in /  1016.6hPa Calm   2mph /  3.2km/h 91% 0in /  0.0mm 0 W/m2
23:23 61.2 °F /  16.2 °C 58.5 °F /  14.7 °C 30in /  1016.6hPa SSW 0.9mph /  1.4km/h 2mph /  3.2km/h 91% 0in /  0.0mm 0 W/m2
23:28 61.2 °F /  16.2 °C 58.3 °F /  14.6 °C 30in /  1016.6hPa WNW 0.9mph /  1.4km/h 3mph /  4.8km/h 90% 0in /  0.0mm 0 W/m2
23:33 61.2 °F /  16.2 °C 58.3 °F /  14.6 °C 30in /  1016.6hPa Calm   1mph /  1.6km/h 90% 0in /  0.0mm 0 W/m2
23:38 61.2 °F /  16.2 °C 58.3 °F /  14.6 °C 30in /  1016.6hPa North 0.9mph /  1.4km/h 2mph /  3.2km/h 90% 0in /  0.0mm 0 W/m2
23:43 61 °F /  16.1 °C 58.1 °F /  14.5 °C 30in /  1016.6hPa Calm   1mph /  1.6km/h 90% 0in /  0.0mm 0 W/m2
23:48 61 °F /  16.1 °C 58.1 °F /  14.5 °C 30in /  1016.6hPa NW 2mph /  3.2km/h 3mph /  4.8km/h 90% 0in /  0.0mm 0 W/m2
23:53 61.2 °F /  16.2 °C 58.3 °F /  14.6 °C 30in /  1016.6hPa North 0.9mph /  1.4km/h 2mph /  3.2km/h 90% 0in /  0.0mm 0 W/m2
23:58 61.2 °F /  16.2 °C 58.3 °F /  14.6 °C 30in /  1016.6hPa Calm   2mph /  3.2km/h 90% 0in /  0.0mm 0 W/m2
Juneau County Weather
Compliments of Weather Underground - 4 mb